createdAt,value
2023-02-19T00:04:54.944Z,-1.27
2023-02-19T00:09:59.674Z,-1.16
2023-02-19T00:15:04.300Z,-1.02
2023-02-19T00:20:09.316Z,-0.86
2023-02-19T00:25:15.168Z,-0.73
2023-02-19T00:30:19.809Z,-0.57
2023-02-19T00:35:25.380Z,-0.28
2023-02-19T00:40:29.963Z,0.01
2023-02-19T00:45:36.144Z,0.26
2023-02-19T00:50:40.720Z,0.58
2023-02-19T00:55:45.392Z,0.86
2023-02-19T01:00:49.934Z,1.10
2023-02-19T01:05:55.808Z,1.34
2023-02-19T01:11:02.512Z,1.60
2023-02-19T01:16:19.549Z,1.79
2023-02-19T01:21:27.717Z,1.99
2023-02-19T01:26:34.011Z,2.26
2023-02-19T01:31:43.438Z,2.55
2023-02-19T01:36:48.222Z,2.74
2023-02-19T01:41:52.912Z,2.92
2023-02-19T01:47:00.184Z,3.10
2023-02-19T01:52:17.733Z,3.26
2023-02-19T01:57:26.787Z,3.35
2023-02-19T02:02:33.146Z,3.59
2023-02-19T02:07:59.124Z,3.82
2023-02-19T02:13:03.868Z,3.97
2023-02-19T02:18:36.651Z,4.09
2023-02-19T02:23:59.757Z,4.25
2023-02-19T02:29:43.490Z,4.54
2023-02-19T02:34:57.751Z,4.74
2023-02-19T02:40:06.336Z,4.82
2023-02-19T02:45:40.398Z,4.97
2023-02-19T02:51:17.698Z,5.11
2023-02-19T02:56:30.704Z,5.28
2023-02-19T03:02:04.382Z,5.48
2023-02-19T03:07:11.313Z,5.68
2023-02-19T03:12:37.308Z,5.80
2023-02-19T03:18:10.982Z,5.95
2023-02-19T03:23:19.205Z,6.11
2023-02-19T03:28:48.691Z,6.26
2023-02-19T03:33:59.311Z,6.40
2023-02-19T03:39:13.812Z,6.60
2023-02-19T03:44:46.634Z,6.73
2023-02-19T03:50:06.371Z,6.85
2023-02-19T03:55:15.210Z,6.96
2023-02-19T04:00:35.887Z,7.04
2023-02-19T04:05:49.516Z,7.16
2023-02-19T04:10:57.035Z,7.33
2023-02-19T04:16:10.602Z,7.34
2023-02-19T04:21:16.214Z,7.41
2023-02-19T04:26:23.012Z,7.52
2023-02-19T04:31:30.975Z,7.66
2023-02-19T04:36:37.550Z,7.78
2023-02-19T04:41:42.228Z,7.85
2023-02-19T04:46:46.874Z,7.93
2023-02-19T04:51:52.867Z,8.09
2023-02-19T04:56:58.731Z,8.20
2023-02-19T05:02:03.654Z,8.25
2023-02-19T05:07:08.360Z,8.28
2023-02-19T05:12:12.886Z,8.25
2023-02-19T05:17:17.477Z,8.28
2023-02-19T05:22:23.268Z,8.36
2023-02-19T05:27:28.395Z,8.39
2023-02-19T05:32:33.732Z,8.48
2023-02-19T05:37:38.475Z,8.66
2023-02-19T05:42:44.183Z,8.61
2023-02-19T05:47:50.312Z,8.68
2023-02-19T05:52:56.706Z,8.79
2023-02-19T05:58:03.794Z,8.89
2023-02-19T06:03:10.044Z,9.02
2023-02-19T06:08:16.888Z,9.09
2023-02-19T06:13:21.615Z,9.07
2023-02-19T06:18:33.996Z,9.14
2023-02-19T06:23:41.041Z,9.15
2023-02-19T06:28:47.344Z,9.25
2023-02-19T06:33:52.623Z,9.21
2023-02-19T06:39:02.371Z,9.27
2023-02-19T06:44:08.592Z,9.38
2023-02-19T06:49:13.580Z,9.32
2023-02-19T06:54:18.750Z,9.36
2023-02-19T06:59:24.110Z,9.32
2023-02-19T07:04:29.462Z,9.30
2023-02-19T07:09:35.275Z,9.38
2023-02-19T07:14:40.450Z,9.32
2023-02-19T07:19:45.785Z,9.22
2023-02-19T07:24:51.819Z,9.26
2023-02-19T07:29:57.145Z,9.30
2023-02-19T07:35:02.125Z,9.25
2023-02-19T07:40:08.827Z,9.28
2023-02-19T07:45:13.616Z,9.19
2023-02-19T07:50:18.755Z,9.19
2023-02-19T07:55:23.692Z,9.16
2023-02-19T08:00:29.474Z,9.10
2023-02-19T08:05:42.814Z,9.10
2023-02-19T08:11:06.290Z,9.01
2023-02-19T08:16:21.792Z,8.99
2023-02-19T08:21:34.148Z,8.89
2023-02-19T08:26:39.646Z,8.83
2023-02-19T08:31:45.083Z,8.76
2023-02-19T08:36:50.279Z,8.68
2023-02-19T08:41:57.151Z,8.58
2023-02-19T08:47:02.588Z,8.51
2023-02-19T08:52:07.885Z,8.46
2023-02-19T08:57:13.139Z,8.28
2023-02-19T09:02:18.444Z,8.24
2023-02-19T09:07:24.390Z,8.20
2023-02-19T09:12:29.369Z,8.08
2023-02-19T09:17:35.278Z,8.07
2023-02-19T09:22:40.564Z,7.93
2023-02-19T09:27:48.536Z,7.83
2023-02-19T09:32:53.982Z,7.77
2023-02-19T09:38:04.875Z,7.63
2023-02-19T09:43:20.287Z,7.52
2023-02-19T09:48:25.508Z,7.28
2023-02-19T09:53:42.404Z,7.22
2023-02-19T09:58:54.055Z,7.08
2023-02-19T10:04:00.234Z,6.97
2023-02-19T10:09:29.271Z,6.90
2023-02-19T10:14:43.793Z,6.82
2023-02-19T10:19:49.140Z,6.70
2023-02-19T10:24:57.369Z,6.64
2023-02-19T10:30:03.440Z,6.60
2023-02-19T10:35:17.763Z,6.59
2023-02-19T10:40:26.512Z,6.56
2023-02-19T10:45:44.344Z,6.51
2023-02-19T10:50:58.472Z,6.40
2023-02-19T10:56:18.214Z,6.29
2023-02-19T11:01:27.117Z,6.18
2023-02-19T11:06:32.935Z,6.10
2023-02-19T11:11:42.080Z,5.98
2023-02-19T11:16:59.665Z,5.90
2023-02-19T11:22:40.320Z,5.81
2023-02-19T11:28:05.069Z,5.77
2023-02-19T11:33:30.411Z,5.69
2023-02-19T11:38:38.432Z,5.63
2023-02-19T11:44:10.058Z,5.59
2023-02-19T11:49:24.995Z,5.55
2023-02-19T11:54:43.038Z,5.46
2023-02-19T12:00:03.117Z,5.37
2023-02-19T12:05:21.282Z,5.27
2023-02-19T12:10:29.373Z,5.18
2023-02-19T12:15:46.001Z,5.08
2023-02-19T12:21:03.734Z,4.95
2023-02-19T12:26:21.178Z,4.91
2023-02-19T12:31:58.884Z,4.85
2023-02-19T12:37:22.903Z,4.65
2023-02-19T12:43:04.912Z,4.53
2023-02-19T12:48:21.284Z,4.46
2023-02-19T12:53:47.553Z,4.42
2023-02-19T12:58:58.516Z,4.32
2023-02-19T13:05:03.207Z,4.38
2023-02-19T13:10:24.286Z,4.38
2023-02-19T13:15:50.849Z,4.41
2023-02-19T13:20:59.663Z,4.35
2023-02-19T13:26:26.427Z,4.33
2023-02-19T13:31:51.531Z,4.22
2023-02-19T13:36:58.065Z,4.26
2023-02-19T13:42:05.449Z,4.24
2023-02-19T13:47:52.254Z,4.18
2023-02-19T13:53:01.191Z,4.09
2023-02-19T13:58:37.981Z,4.04
2023-02-19T14:04:12.276Z,3.86
2023-02-19T14:09:40.906Z,3.67
2023-02-19T14:15:01.339Z,3.51
2023-02-19T14:20:36.316Z,3.38
2023-02-19T14:26:06.283Z,3.25
2023-02-19T14:31:34.031Z,3.22
2023-02-19T14:36:46.796Z,3.19
2023-02-19T14:41:58.705Z,3.14
2023-02-19T14:47:17.942Z,3.07
2023-02-19T14:52:33.598Z,2.97
2023-02-19T14:57:43.019Z,2.86
2023-02-19T15:02:50.452Z,2.67
2023-02-19T15:07:59.935Z,2.38
2023-02-19T15:13:16.350Z,2.11
2023-02-19T15:18:29.639Z,1.89
2023-02-19T15:23:37.301Z,1.76
2023-02-19T15:28:42.167Z,1.69
2023-02-19T15:33:55.718Z,1.67
2023-02-19T15:39:03.812Z,1.63
2023-02-19T15:44:27.623Z,1.59
2023-02-19T15:49:53.419Z,1.54
2023-02-19T15:55:41.760Z,1.51
2023-02-19T16:01:02.068Z,1.43
2023-02-19T16:06:07.808Z,1.33
2023-02-19T16:11:26.752Z,1.26
2023-02-19T16:16:40.324Z,1.19
2023-02-19T16:21:46.074Z,1.10
2023-02-19T16:26:51.671Z,1.06
2023-02-19T16:32:06.867Z,1.03
2023-02-19T16:37:58.981Z,1.03
2023-02-19T16:43:24.292Z,0.97
2023-02-19T16:48:30.396Z,0.90
2023-02-19T16:53:36.658Z,0.86
2023-02-19T16:58:42.131Z,0.84
2023-02-19T17:03:49.042Z,0.76
2023-02-19T17:08:55.488Z,0.65
2023-02-19T17:14:00.280Z,0.59
2023-02-19T17:19:06.823Z,0.52
2023-02-19T17:24:12.525Z,0.45
2023-02-19T17:29:19.671Z,0.43
2023-02-19T17:34:24.898Z,0.46
2023-02-19T17:39:29.939Z,0.43
2023-02-19T17:44:34.892Z,0.34
2023-02-19T17:49:39.668Z,0.31
2023-02-19T17:54:46.110Z,0.27
2023-02-19T17:59:51.159Z,0.21
2023-02-19T18:04:56.555Z,0.18
2023-02-19T18:10:01.509Z,0.17
2023-02-19T18:15:06.840Z,0.16
2023-02-19T18:20:15.895Z,0.07
2023-02-19T18:25:22.253Z,0.06
2023-02-19T18:30:27.648Z,-0.02
2023-02-19T18:35:34.780Z,-0.06
2023-02-19T18:40:39.473Z,-0.05
2023-02-19T18:45:46.606Z,-0.09
2023-02-19T18:50:51.706Z,-0.12
2023-02-19T18:55:58.123Z,-0.22
2023-02-19T19:01:03.197Z,-0.31
2023-02-19T19:06:08.470Z,-0.38
2023-02-19T19:11:14.467Z,-0.48
2023-02-19T19:16:18.977Z,-0.59
2023-02-19T19:21:24.956Z,-0.67
2023-02-19T19:26:29.545Z,-0.75
2023-02-19T19:31:38.658Z,-0.81
2023-02-19T19:36:43.920Z,-0.83
2023-02-19T19:41:55.716Z,-0.86
2023-02-19T19:47:00.834Z,-0.93
2023-02-19T19:52:07.149Z,-0.94
2023-02-19T19:57:12.803Z,-0.96
2023-02-19T20:02:17.365Z,-1.02
2023-02-19T20:07:23.295Z,-1.08
2023-02-19T20:12:28.996Z,-1.12
2023-02-19T20:17:34.111Z,-1.17
2023-02-19T20:22:40.526Z,-1.23
2023-02-19T20:27:46.490Z,-1.23
2023-02-19T20:32:51.162Z,-1.28
2023-02-19T20:37:56.861Z,-1.33
2023-02-19T20:43:03.324Z,-1.34
2023-02-19T20:48:08.027Z,-1.35
2023-02-19T20:53:13.334Z,-1.32
2023-02-19T20:58:19.832Z,-1.30
2023-02-19T21:03:25.576Z,-1.35
2023-02-19T21:08:30.612Z,-1.36
2023-02-19T21:13:36.411Z,-1.37
2023-02-19T21:18:41.906Z,-1.43
2023-02-19T21:23:47.504Z,-1.52
2023-02-19T21:28:57.088Z,-1.60
2023-02-19T21:34:02.137Z,-1.72
2023-02-19T21:39:09.839Z,-1.83
2023-02-19T21:44:16.290Z,-1.94
2023-02-19T21:49:21.429Z,-1.97
2023-02-19T21:54:27.701Z,-1.98
2023-02-19T21:59:33.771Z,-2.03
2023-02-19T22:04:39.164Z,-2.07
2023-02-19T22:09:46.381Z,-2.10
2023-02-19T22:14:51.536Z,-2.19
2023-02-19T22:19:56.664Z,-2.25
2023-02-19T22:25:01.795Z,-2.33
2023-02-19T22:30:07.416Z,-2.41
2023-02-19T22:35:14.278Z,-2.48
2023-02-19T22:40:22.519Z,-2.62
2023-02-19T22:45:27.836Z,-2.68
2023-02-19T22:50:33.063Z,-2.73
2023-02-19T22:55:39.597Z,-2.80
2023-02-19T23:00:44.762Z,-2.83
2023-02-19T23:05:50.074Z,-2.90
2023-02-19T23:10:55.189Z,-2.89
2023-02-19T23:16:00.468Z,-2.87
2023-02-19T23:21:06.918Z,-2.81
2023-02-19T23:26:12.901Z,-2.80
2023-02-19T23:31:19.164Z,-2.74
2023-02-19T23:36:26.052Z,-2.76
2023-02-19T23:41:31.160Z,-2.71
2023-02-19T23:46:36.342Z,-2.69
2023-02-19T23:51:42.083Z,-2.66
2023-02-19T23:56:47.357Z,-2.61
